KONA/ONA METAR and TAF weather

Enter ICAO airport designator
Station Type Date Time Source
KONA METAR 2019/08/24 06:55 UTC NOAA

KONA 240655Z AUTO 00000KT 10SM CLR 15/13 A3026 RMK AO2


Station Type Date Time Source
KONA Decoded METAR 2019/08/24 06:55 UTC NOAA

Station name not available
Aug 24, 2019 - 02:55 AM EDT / 2019.08.24 0655 UTC
Wind: Calm:0
Visibility: 10 mile(s):0
Sky conditions: clear
Temperature: 59 F (15 C)
Dew Point: 55 F (13 C)
Relative Humidity: 87%
Pressure (altimeter): 30.26 in. Hg (1024 hPa)
ob: KONA 240655Z AUTO 00000KT 10SM CLR 15/13 A3026 RMK AO2
cycle: 7

Station Type Date Time Source
KONA TAF UTC NOAA

Error!

Example: see airport list